sensor_id;sensor_type;location;lat;lon;timestamp;pressure;altitude;pressure_sealevel;temperature;humidity
21988;BME280;11158;53.404;-1.510;2023-04-29T00:00:00;100687.50;;;15.50;49.60
21988;BME280;11158;53.404;-1.510;2023-04-29T00:02:45;100695.56;;;14.70;51.81
21988;BME280;11158;53.404;-1.510;2023-04-29T00:05:29;100691.66;;;15.39;50.33
21988;BME280;11158;53.404;-1.510;2023-04-29T00:08:13;100693.09;;;15.48;49.83
21988;BME280;11158;53.404;-1.510;2023-04-29T00:10:58;100703.66;;;14.83;51.57
21988;BME280;11158;53.404;-1.510;2023-04-29T00:13:42;100703.47;;;15.12;51.16
21988;BME280;11158;53.404;-1.510;2023-04-29T00:16:26;100708.66;;;15.33;50.52
21988;BME280;11158;53.404;-1.510;2023-04-29T00:19:11;100711.09;;;14.75;52.14
21988;BME280;11158;53.404;-1.510;2023-04-29T00:21:56;100711.09;;;14.81;51.88
21988;BME280;11158;53.404;-1.510;2023-04-29T00:24:40;100706.63;;;14.47;52.89
21988;BME280;11158;53.404;-1.510;2023-04-29T00:27:24;100705.13;;;15.26;51.10
21988;BME280;11158;53.404;-1.510;2023-04-29T00:30:08;100704.50;;;15.44;50.32
21988;BME280;11158;53.404;-1.510;2023-04-29T00:32:52;100705.72;;;15.61;49.79
21988;BME280;11158;53.404;-1.510;2023-04-29T00:35:36;100714.25;;;15.72;49.45
21988;BME280;11158;53.404;-1.510;2023-04-29T00:38:21;100718.34;;;15.67;49.77
21988;BME280;11158;53.404;-1.510;2023-04-29T00:41:05;100717.13;;;15.77;49.61
21988;BME280;11158;53.404;-1.510;2023-04-29T00:43:48;100713.81;;;15.75;49.38
21988;BME280;11158;53.404;-1.510;2023-04-29T00:46:33;100713.16;;;15.59;49.81
21988;BME280;11158;53.404;-1.510;2023-04-29T00:49:17;100720.63;;;15.50;50.22
21988;BME280;11158;53.404;-1.510;2023-04-29T00:52:02;100716.72;;;15.53;49.98
21988;BME280;11158;53.404;-1.510;2023-04-29T00:54:46;100719.22;;;15.35;50.59
21988;BME280;11158;53.404;-1.510;2023-04-29T00:57:29;100711.16;;;15.28;50.74
21988;BME280;11158;53.404;-1.510;2023-04-29T01:00:13;100713.22;;;15.39;50.56
21988;BME280;11158;53.404;-1.510;2023-04-29T01:02:59;100706.53;;;15.55;50.09
21988;BME280;11158;53.404;-1.510;2023-04-29T01:05:46;100720.25;;;15.34;50.45
21988;BME280;11158;53.404;-1.510;2023-04-29T01:08:51;100717.13;;;15.37;50.97
21988;BME280;11158;53.404;-1.510;2023-04-29T01:11:52;100717.31;;;15.55;50.51
21988;BME280;11158;53.404;-1.510;2023-04-29T01:14:39;100719.41;;;15.53;50.19
21988;BME280;11158;53.404;-1.510;2023-04-29T01:17:28;100718.19;;;15.49;50.13
21988;BME280;11158;53.404;-1.510;2023-04-29T01:20:14;100728.53;;;15.32;50.78
21988;BME280;11158;53.404;-1.510;2023-04-29T01:22:59;100721.91;;;15.35;50.62
21988;BME280;11158;53.404;-1.510;2023-04-29T01:25:43;100732.69;;;15.21;51.00
21988;BME280;11158;53.404;-1.510;2023-04-29T01:28:52;100730.81;;;15.42;50.78
21988;BME280;11158;53.404;-1.510;2023-04-29T01:31:55;100733.72;;;15.34;50.86
21988;BME280;11158;53.404;-1.510;2023-04-29T01:34:48;100728.94;;;15.42;50.32
21988;BME280;11158;53.404;-1.510;2023-04-29T01:37:58;100731.44;;;15.17;51.13
21988;BME280;11158;53.404;-1.510;2023-04-29T01:40:49;100731.03;;;14.39;52.76
21988;BME280;11158;53.404;-1.510;2023-04-29T01:43:39;100736.66;;;14.51;52.78
21988;BME280;11158;53.404;-1.510;2023-04-29T01:46:24;100731.38;;;14.16;53.50
21988;BME280;11158;53.404;-1.510;2023-04-29T01:49:08;100727.47;;;13.83;54.80
21988;BME280;11158;53.404;-1.510;2023-04-29T01:51:52;100727.25;;;13.85;54.79
21988;BME280;11158;53.404;-1.510;2023-04-29T01:54:37;100723.66;;;14.06;54.00
21988;BME280;11158;53.404;-1.510;2023-04-29T01:57:22;100730.47;;;13.39;55.88
21988;BME280;11158;53.404;-1.510;2023-04-29T02:00:06;100738.63;;;13.09;57.16
21988;BME280;11158;53.404;-1.510;2023-04-29T02:02:51;100741.94;;;13.54;56.06
21988;BME280;11158;53.404;-1.510;2023-04-29T02:05:36;100737.34;;;13.48;56.21
21988;BME280;11158;53.404;-1.510;2023-04-29T02:08:20;100738.97;;;13.71;55.54
21988;BME280;11158;53.404;-1.510;2023-04-29T02:11:04;100731.22;;;13.89;54.88
21988;BME280;11158;53.404;-1.510;2023-04-29T02:13:48;100731.38;;;13.53;55.89
21988;BME280;11158;53.404;-1.510;2023-04-29T02:16:33;100732.91;;;13.62;56.04
21988;BME280;11158;53.404;-1.510;2023-04-29T02:19:17;100739.34;;;14.02;55.05
21988;BME280;11158;53.404;-1.510;2023-04-29T02:22:01;100735.91;;;14.22;53.97
21988;BME280;11158;53.404;-1.510;2023-04-29T02:24:45;100739.94;;;14.39;53.46
21988;BME280;11158;53.404;-1.510;2023-04-29T02:27:30;100730.56;;;13.87;54.68
21988;BME280;11158;53.404;-1.510;2023-04-29T02:30:14;100738.78;;;14.14;54.30
21988;BME280;11158;53.404;-1.510;2023-04-29T02:32:59;100742.84;;;14.44;53.31
21988;BME280;11158;53.404;-1.510;2023-04-29T02:35:43;100746.84;;;13.72;54.79
21988;BME280;11158;53.404;-1.510;2023-04-29T02:38:27;100755.59;;;13.59;55.96
21988;BME280;11158;53.404;-1.510;2023-04-29T02:41:16;100750.63;;;13.85;55.16
21988;BME280;11158;53.404;-1.510;2023-04-29T02:44:01;100749.63;;;13.92;54.86
21988;BME280;11158;53.404;-1.510;2023-04-29T02:46:45;100750.66;;;13.91;54.78
21988;BME280;11158;53.404;-1.510;2023-04-29T02:49:29;100741.94;;;14.24;54.00
21988;BME280;11158;53.404;-1.510;2023-04-29T02:52:13;100741.28;;;14.57;53.32
21988;BME280;11158;53.404;-1.510;2023-04-29T02:54:57;100742.13;;;14.77;52.62
21988;BME280;11158;53.404;-1.510;2023-04-29T02:57:41;100741.72;;;14.67;52.60
21988;BME280;11158;53.404;-1.510;2023-04-29T03:00:26;100745.63;;;14.64;52.80
21988;BME280;11158;53.404;-1.510;2023-04-29T03:03:09;100753.31;;;13.56;55.56
21988;BME280;11158;53.404;-1.510;2023-04-29T03:05:54;100750.47;;;13.65;55.51
21988;BME280;11158;53.404;-1.510;2023-04-29T03:08:37;100744.84;;;12.67;58.24
21988;BME280;11158;53.404;-1.510;2023-04-29T03:11:22;100756.53;;;12.29;59.27
21988;BME280;11158;53.404;-1.510;2023-04-29T03:14:07;100754.75;;;12.51;59.04
21988;BME280;11158;53.404;-1.510;2023-04-29T03:16:51;100754.03;;;13.44;56.67
21988;BME280;11158;53.404;-1.510;2023-04-29T03:19:35;100748.44;;;13.67;55.30
21988;BME280;11158;53.404;-1.510;2023-04-29T03:22:19;100750.34;;;13.73;55.18
21988;BME280;11158;53.404;-1.510;2023-04-29T03:25:04;100755.25;;;13.69;54.99
21988;BME280;11158;53.404;-1.510;2023-04-29T03:27:49;100742.91;;;13.75;54.89
21988;BME280;11158;53.404;-1.510;2023-04-29T03:30:33;100756.66;;;13.37;55.52
21988;BME280;11158;53.404;-1.510;2023-04-29T03:33:17;100757.94;;;12.98;56.77
21988;BME280;11158;53.404;-1.510;2023-04-29T03:36:01;100763.28;;;12.25;59.55
21988;BME280;11158;53.404;-1.510;2023-04-29T03:38:46;100758.47;;;11.76;61.48
21988;BME280;11158;53.404;-1.510;2023-04-29T03:41:30;100765.13;;;11.80;61.63
21988;BME280;11158;53.404;-1.510;2023-04-29T03:44:15;100762.56;;;12.02;61.65
21988;BME280;11158;53.404;-1.510;2023-04-29T03:46:59;100754.34;;;12.69;59.13
21988;BME280;11158;53.404;-1.510;2023-04-29T03:49:43;100771.56;;;13.18;57.08
21988;BME280;11158;53.404;-1.510;2023-04-29T03:52:29;100768.50;;;13.43;56.26
21988;BME280;11158;53.404;-1.510;2023-04-29T03:55:13;100764.19;;;13.48;55.83
21988;BME280;11158;53.404;-1.510;2023-04-29T03:57:57;100779.44;;;13.41;56.34
21988;BME280;11158;53.404;-1.510;2023-04-29T04:00:41;100779.78;;;13.16;56.40
21988;BME280;11158;53.404;-1.510;2023-04-29T04:03:26;100779.03;;;13.01;57.16
21988;BME280;11158;53.404;-1.510;2023-04-29T04:06:10;100774.91;;;12.47;58.52
21988;BME280;11158;53.404;-1.510;2023-04-29T04:08:54;100783.81;;;12.33;59.82
21988;BME280;11158;53.404;-1.510;2023-04-29T04:11:38;100786.56;;;12.54;59.14
21988;BME280;11158;53.404;-1.510;2023-04-29T04:14:23;100787.81;;;12.07;60.41
21988;BME280;11158;53.404;-1.510;2023-04-29T04:17:07;100795.13;;;11.76;61.73
21988;BME280;11158;53.404;-1.510;2023-04-29T04:19:52;100785.50;;;12.19;60.65
21988;BME280;11158;53.404;-1.510;2023-04-29T04:22:36;100788.06;;;12.42;60.30
21988;BME280;11158;53.404;-1.510;2023-04-29T04:25:20;100791.53;;;11.83;61.58
21988;BME280;11158;53.404;-1.510;2023-04-29T04:28:04;100795.16;;;11.90;61.40
21988;BME280;11158;53.404;-1.510;2023-04-29T04:30:49;100793.72;;;11.50;63.12
21988;BME280;11158;53.404;-1.510;2023-04-29T04:33:33;100793.84;;;11.71;62.59
21988;BME280;11158;53.404;-1.510;2023-04-29T04:36:18;100801.31;;;11.76;62.08
21988;BME280;11158;53.404;-1.510;2023-04-29T04:39:02;100788.84;;;11.83;62.39
21988;BME280;11158;53.404;-1.510;2023-04-29T04:41:46;100785.50;;;12.19;61.35
21988;BME280;11158;53.404;-1.510;2023-04-29T04:44:30;100791.72;;;11.82;61.84
21988;BME280;11158;53.404;-1.510;2023-04-29T04:47:14;100796.13;;;11.60;62.75
21988;BME280;11158;53.404;-1.510;2023-04-29T04:49:59;100804.22;;;11.51;62.85
21988;BME280;11158;53.404;-1.510;2023-04-29T04:52:43;100814.34;;;11.41;63.21
21988;BME280;11158;53.404;-1.510;2023-04-29T04:55:27;100811.69;;;11.18;63.91
21988;BME280;11158;53.404;-1.510;2023-04-29T04:58:11;100813.50;;;10.63;65.46
21988;BME280;11158;53.404;-1.510;2023-04-29T05:00:55;100814.28;;;11.03;63.88
21988;BME280;11158;53.404;-1.510;2023-04-29T05:03:39;100809.19;;;11.17;63.74
21988;BME280;11158;53.404;-1.510;2023-04-29T05:06:23;100816.13;;;11.26;63.10
21988;BME280;11158;53.404;-1.510;2023-04-29T05:09:07;100831.47;;;11.32;63.19
21988;BME280;11158;53.404;-1.510;2023-04-29T05:11:52;100821.41;;;11.57;62.50
21988;BME280;11158;53.404;-1.510;2023-04-29T05:14:37;100822.53;;;12.45;60.23
21988;BME280;11158;53.404;-1.510;2023-04-29T05:17:21;100819.50;;;13.64;56.93
21988;BME280;11158;53.404;-1.510;2023-04-29T05:20:05;100821.19;;;14.70;53.77
21988;BME280;11158;53.404;-1.510;2023-04-29T05:22:50;100814.94;;;16.04;51.06
21988;BME280;11158;53.404;-1.510;2023-04-29T05:25:34;100813.13;;;17.01;48.01
21988;BME280;11158;53.404;-1.510;2023-04-29T05:28:18;100817.91;;;17.63;46.28
21988;BME280;11158;53.404;-1.510;2023-04-29T05:31:02;100816.81;;;18.51;43.67
21988;BME280;11158;53.404;-1.510;2023-04-29T05:33:46;100821.78;;;19.75;40.62
21988;BME280;11158;53.404;-1.510;2023-04-29T05:36:30;100818.00;;;19.99;39.00
21988;BME280;11158;53.404;-1.510;2023-04-29T05:39:15;100815.00;;;20.36;38.63
21988;BME280;11158;53.404;-1.510;2023-04-29T05:42:00;100821.13;;;20.55;37.09
21988;BME280;11158;53.404;-1.510;2023-04-29T05:44:46;100808.59;;;20.95;36.74
21988;BME280;11158;53.404;-1.510;2023-04-29T05:47:30;100811.41;;;21.45;36.02
21988;BME280;11158;53.404;-1.510;2023-04-29T05:50:14;100806.41;;;22.49;34.11
21988;BME280;11158;53.404;-1.510;2023-04-29T05:52:58;100815.56;;;22.87;33.39
21988;BME280;11158;53.404;-1.510;2023-04-29T05:55:42;100809.59;;;23.76;31.50
21988;BME280;11158;53.404;-1.510;2023-04-29T05:58:28;100807.03;;;23.00;31.94
21988;BME280;11158;53.404;-1.510;2023-04-29T06:01:12;100810.81;;;23.63;31.72
21988;BME280;11158;53.404;-1.510;2023-04-29T06:03:56;100802.19;;;24.77;29.40
21988;BME280;11158;53.404;-1.510;2023-04-29T06:06:40;100801.19;;;24.36;29.77
21988;BME280;11158;53.404;-1.510;2023-04-29T06:09:24;100808.44;;;24.10;30.50
21988;BME280;11158;53.404;-1.510;2023-04-29T06:12:08;100809.16;;;23.25;31.90
21988;BME280;11158;53.404;-1.510;2023-04-29T06:14:53;100815.00;;;23.71;31.10
21988;BME280;11158;53.404;-1.510;2023-04-29T06:17:37;100795.97;;;25.18;29.27
21988;BME280;11158;53.404;-1.510;2023-04-29T06:20:22;100809.66;;;23.22;31.64
21988;BME280;11158;53.404;-1.510;2023-04-29T06:23:06;100798.94;;;24.96;29.63
21988;BME280;11158;53.404;-1.510;2023-04-29T06:25:50;100799.19;;;26.27;27.55
21988;BME280;11158;53.404;-1.510;2023-04-29T06:28:34;100804.16;;;26.75;26.69
21988;BME280;11158;53.404;-1.510;2023-04-29T06:31:19;100800.50;;;26.35;27.83
21988;BME280;11158;53.404;-1.510;2023-04-29T06:34:04;100805.16;;;28.22;25.40
21988;BME280;11158;53.404;-1.510;2023-04-29T06:36:48;100797.19;;;29.58;23.58
21988;BME280;11158;53.404;-1.510;2023-04-29T06:39:32;100805.72;;;29.04;23.95
21988;BME280;11158;53.404;-1.510;2023-04-29T06:42:16;100802.97;;;29.89;23.06
21988;BME280;11158;53.404;-1.510;2023-04-29T06:45:00;100803.75;;;31.45;21.29
21988;BME280;11158;53.404;-1.510;2023-04-29T06:47:44;100807.50;;;32.87;20.11
21988;BME280;11158;53.404;-1.510;2023-04-29T06:50:29;100801.44;;;34.40;18.61
21988;BME280;11158;53.404;-1.510;2023-04-29T06:53:13;100797.00;;;35.77;17.42
21988;BME280;11158;53.404;-1.510;2023-04-29T06:55:57;100810.03;;;34.98;17.74
21988;BME280;11158;53.404;-1.510;2023-04-29T06:58:41;100809.97;;;33.32;19.33
21988;BME280;11158;53.404;-1.510;2023-04-29T07:01:25;100814.88;;;32.34;20.68
21988;BME280;11158;53.404;-1.510;2023-04-29T07:04:09;100810.78;;;32.23;20.53
21988;BME280;11158;53.404;-1.510;2023-04-29T07:06:54;100821.53;;;30.80;22.43
21988;BME280;11158;53.404;-1.510;2023-04-29T07:09:39;100826.84;;;29.94;23.58
21988;BME280;11158;53.404;-1.510;2023-04-29T07:12:23;100853.44;;;26.15;28.48
21988;BME280;11158;53.404;-1.510;2023-04-29T07:15:07;100856.31;;;24.80;31.24
21988;BME280;11158;53.404;-1.510;2023-04-29T07:17:52;100867.97;;;22.50;35.38
21988;BME280;11158;53.404;-1.510;2023-04-29T07:20:36;100875.44;;;22.21;35.98
21988;BME280;11158;53.404;-1.510;2023-04-29T07:23:20;100882.03;;;21.40;37.70
21988;BME280;11158;53.404;-1.510;2023-04-29T07:26:15;100875.88;;;20.52;39.73
21988;BME280;11158;53.404;-1.510;2023-04-29T07:29:00;100883.28;;;19.62;41.95
21988;BME280;11158;53.404;-1.510;2023-04-29T07:31:44;100882.28;;;20.22;40.96
21988;BME280;11158;53.404;-1.510;2023-04-29T07:34:28;100876.72;;;20.53;40.57
21988;BME280;11158;53.404;-1.510;2023-04-29T07:37:13;100878.97;;;20.56;40.45
21988;BME280;11158;53.404;-1.510;2023-04-29T07:39:57;100870.31;;;21.40;38.72
21988;BME280;11158;53.404;-1.510;2023-04-29T07:42:41;100876.94;;;20.75;40.10
21988;BME280;11158;53.404;-1.510;2023-04-29T07:45:25;100874.38;;;21.54;38.55
21988;BME280;11158;53.404;-1.510;2023-04-29T07:48:09;100871.09;;;21.69;37.86
21988;BME280;11158;53.404;-1.510;2023-04-29T07:50:53;100871.00;;;22.31;37.55
21988;BME280;11158;53.404;-1.510;2023-04-29T07:53:38;100870.84;;;21.25;39.28
21988;BME280;11158;53.404;-1.510;2023-04-29T07:56:22;100874.63;;;22.03;36.92
21988;BME280;11158;53.404;-1.510;2023-04-29T07:59:06;100878.69;;;20.81;39.42
21988;BME280;11158;53.404;-1.510;2023-04-29T08:01:51;100882.81;;;21.24;39.04
21988;BME280;11158;53.404;-1.510;2023-04-29T08:04:38;100881.69;;;20.56;39.73
21988;BME280;11158;53.404;-1.510;2023-04-29T08:07:24;100881.00;;;20.60;40.19
21988;BME280;11158;53.404;-1.510;2023-04-29T08:10:08;100889.34;;;20.47;40.43
21988;BME280;11158;53.404;-1.510;2023-04-29T08:12:52;100881.72;;;21.53;38.43
21988;BME280;11158;53.404;-1.510;2023-04-29T08:15:36;100887.59;;;21.33;39.13
21988;BME280;11158;53.404;-1.510;2023-04-29T08:18:20;100885.34;;;21.42;39.45
21988;BME280;11158;53.404;-1.510;2023-04-29T08:21:04;100896.09;;;20.33;41.61
21988;BME280;11158;53.404;-1.510;2023-04-29T08:23:48;100896.91;;;21.09;40.16
21988;BME280;11158;53.404;-1.510;2023-04-29T08:26:32;100895.19;;;20.91;39.81
21988;BME280;11158;53.404;-1.510;2023-04-29T08:29:16;100897.00;;;20.50;40.93
21988;BME280;11158;53.404;-1.510;2023-04-29T08:32:01;100897.34;;;19.71;42.38
21988;BME280;11158;53.404;-1.510;2023-04-29T08:34:45;100899.03;;;20.43;41.12
21988;BME280;11158;53.404;-1.510;2023-04-29T08:37:30;100902.44;;;21.14;40.17
21988;BME280;11158;53.404;-1.510;2023-04-29T08:40:14;100912.69;;;19.77;42.49
21988;BME280;11158;53.404;-1.510;2023-04-29T08:42:58;100926.72;;;18.15;46.52
21988;BME280;11158;53.404;-1.510;2023-04-29T08:45:44;100917.09;;;18.99;44.52
21988;BME280;11158;53.404;-1.510;2023-04-29T08:48:29;100914.34;;;18.88;45.02
21988;BME280;11158;53.404;-1.510;2023-04-29T08:51:14;100930.63;;;19.18;44.60
21988;BME280;11158;53.404;-1.510;2023-04-29T08:53:58;100920.59;;;19.49;43.62
21988;BME280;11158;53.404;-1.510;2023-04-29T08:56:45;100926.25;;;18.98;45.69
21988;BME280;11158;53.404;-1.510;2023-04-29T08:59:30;100928.03;;;19.23;45.23
21988;BME280;11158;53.404;-1.510;2023-04-29T09:02:15;100929.16;;;18.41;47.11
21988;BME280;11158;53.404;-1.510;2023-04-29T09:05:07;100927.88;;;18.88;45.43
21988;BME280;11158;53.404;-1.510;2023-04-29T09:07:52;100928.31;;;20.17;42.91
21988;BME280;11158;53.404;-1.510;2023-04-29T09:10:38;100931.16;;;20.69;41.62
21988;BME280;11158;53.404;-1.510;2023-04-29T09:13:27;100939.72;;;18.68;46.89
21988;BME280;11158;53.404;-1.510;2023-04-29T09:16:11;100940.59;;;17.62;48.55
21988;BME280;11158;53.404;-1.510;2023-04-29T09:18:56;100939.50;;;18.70;46.97
21988;BME280;11158;53.404;-1.510;2023-04-29T09:21:53;100933.56;;;19.46;44.05
21988;BME280;11158;53.404;-1.510;2023-04-29T09:24:38;100936.03;;;18.62;46.41
21988;BME280;11158;53.404;-1.510;2023-04-29T09:27:26;100942.31;;;18.38;47.96
21988;BME280;11158;53.404;-1.510;2023-04-29T09:30:12;100934.50;;;18.48;47.26
21988;BME280;11158;53.404;-1.510;2023-04-29T09:33:16;100937.47;;;19.51;44.81
21988;BME280;11158;53.404;-1.510;2023-04-29T09:36:00;100930.34;;;21.67;39.77
21988;BME280;11158;53.404;-1.510;2023-04-29T09:38:54;100927.25;;;21.75;38.64
21988;BME280;11158;53.404;-1.510;2023-04-29T09:44:30;100947.78;;;20.49;42.59
21988;BME280;11158;53.404;-1.510;2023-04-29T09:47:14;100947.44;;;20.46;42.32
21988;BME280;11158;53.404;-1.510;2023-04-29T09:50:10;100942.78;;;21.34;40.25
21988;BME280;11158;53.404;-1.510;2023-04-29T09:52:57;100935.03;;;21.54;39.69
21988;BME280;11158;53.404;-1.510;2023-04-29T09:56:00;100941.88;;;20.41;42.02
21988;BME280;11158;53.404;-1.510;2023-04-29T09:58:45;100936.50;;;21.45;40.10
21988;BME280;11158;53.404;-1.510;2023-04-29T10:01:29;100928.75;;;22.33;37.83
21988;BME280;11158;53.404;-1.510;2023-04-29T10:04:16;100934.63;;;21.05;40.53
21988;BME280;11158;53.404;-1.510;2023-04-29T10:07:00;100935.16;;;21.77;39.61
21988;BME280;11158;53.404;-1.510;2023-04-29T10:09:46;100936.97;;;21.71;38.77
21988;BME280;11158;53.404;-1.510;2023-04-29T10:12:33;100934.63;;;22.25;37.70
21988;BME280;11158;53.404;-1.510;2023-04-29T10:15:47;100945.41;;;22.20;37.06
21988;BME280;11158;53.404;-1.510;2023-04-29T10:18:37;100941.94;;;22.80;36.31
21988;BME280;11158;53.404;-1.510;2023-04-29T10:21:27;100946.63;;;23.02;35.71
21988;BME280;11158;53.404;-1.510;2023-04-29T10:24:16;100930.66;;;23.97;34.44
21988;BME280;11158;53.404;-1.510;2023-04-29T10:27:02;100937.50;;;22.02;37.60
21988;BME280;11158;53.404;-1.510;2023-04-29T10:29:50;100939.94;;;22.54;37.08
21988;BME280;11158;53.404;-1.510;2023-04-29T10:32:35;100934.53;;;22.20;38.09
21988;BME280;11158;53.404;-1.510;2023-04-29T10:35:21;100942.38;;;21.54;40.44
21988;BME280;11158;53.404;-1.510;2023-04-29T10:38:15;100935.00;;;22.00;39.55
21988;BME280;11158;53.404;-1.510;2023-04-29T10:41:08;100936.75;;;22.23;37.58
21988;BME280;11158;53.404;-1.510;2023-04-29T10:43:54;100930.97;;;21.40;39.67
21988;BME280;11158;53.404;-1.510;2023-04-29T10:46:38;100945.69;;;19.74;44.12
21988;BME280;11158;53.404;-1.510;2023-04-29T10:49:23;100945.34;;;20.60;42.85
21988;BME280;11158;53.404;-1.510;2023-04-29T10:52:07;100933.41;;;20.25;41.90
21988;BME280;11158;53.404;-1.510;2023-04-29T10:55:01;100943.03;;;19.86;43.26
21988;BME280;11158;53.404;-1.510;2023-04-29T10:57:47;100932.75;;;21.63;39.25
21988;BME280;11158;53.404;-1.510;2023-04-29T11:00:36;100935.81;;;20.98;40.68
21988;BME280;11158;53.404;-1.510;2023-04-29T11:03:53;100936.19;;;22.04;38.77
21988;BME280;11158;53.404;-1.510;2023-04-29T11:06:44;100933.06;;;22.29;37.27
21988;BME280;11158;53.404;-1.510;2023-04-29T11:09:30;100942.47;;;21.76;38.50
21988;BME280;11158;53.404;-1.510;2023-04-29T11:12:19;100928.97;;;23.10;36.21
21988;BME280;11158;53.404;-1.510;2023-04-29T11:15:04;100927.78;;;23.00;35.06
21988;BME280;11158;53.404;-1.510;2023-04-29T11:17:57;100925.44;;;22.48;35.93
21988;BME280;11158;53.404;-1.510;2023-04-29T11:23:51;100926.41;;;22.42;37.70
21988;BME280;11158;53.404;-1.510;2023-04-29T11:26:35;100927.63;;;21.09;39.43
21988;BME280;11158;53.404;-1.510;2023-04-29T11:29:20;100921.97;;;21.68;38.52
21988;BME280;11158;53.404;-1.510;2023-04-29T11:32:06;100922.28;;;22.40;36.53
21988;BME280;11158;53.404;-1.510;2023-04-29T11:34:52;100919.72;;;21.37;38.34
21988;BME280;11158;53.404;-1.510;2023-04-29T11:37:37;100928.16;;;21.35;39.41
21988;BME280;11158;53.404;-1.510;2023-04-29T11:40:22;100917.16;;;21.42;38.79
21988;BME280;11158;53.404;-1.510;2023-04-29T11:43:06;100906.44;;;23.19;35.45
21988;BME280;11158;53.404;-1.510;2023-04-29T11:45:52;100906.34;;;24.33;33.51
21988;BME280;11158;53.404;-1.510;2023-04-29T11:48:46;100910.94;;;24.70;32.25
21988;BME280;11158;53.404;-1.510;2023-04-29T11:51:31;100909.72;;;24.03;33.27
21988;BME280;11158;53.404;-1.510;2023-04-29T11:54:15;100903.56;;;23.86;33.06
21988;BME280;11158;53.404;-1.510;2023-04-29T11:56:59;100914.72;;;22.08;36.63
21988;BME280;11158;53.404;-1.510;2023-04-29T11:59:47;100904.72;;;22.69;35.53
21988;BME280;11158;53.404;-1.510;2023-04-29T12:02:32;100908.31;;;23.41;34.55
21988;BME280;11158;53.404;-1.510;2023-04-29T12:05:17;100901.50;;;24.03;33.64
21988;BME280;11158;53.404;-1.510;2023-04-29T12:08:02;100909.38;;;23.40;34.14
21988;BME280;11158;53.404;-1.510;2023-04-29T12:10:46;100909.53;;;23.55;34.27
21988;BME280;11158;53.404;-1.510;2023-04-29T12:13:32;100910.72;;;23.10;35.14
21988;BME280;11158;53.404;-1.510;2023-04-29T12:16:19;100910.31;;;22.79;36.81
21988;BME280;11158;53.404;-1.510;2023-04-29T12:19:04;100910.25;;;22.18;37.25
21988;BME280;11158;53.404;-1.510;2023-04-29T12:21:49;100913.44;;;21.19;39.29
21988;BME280;11158;53.404;-1.510;2023-04-29T12:24:36;100911.50;;;21.94;37.91
21988;BME280;11158;53.404;-1.510;2023-04-29T12:27:21;100907.75;;;22.51;36.69
21988;BME280;11158;53.404;-1.510;2023-04-29T12:30:06;100907.63;;;22.24;37.58
21988;BME280;11158;53.404;-1.510;2023-04-29T12:32:52;100910.47;;;21.49;39.49
21988;BME280;11158;53.404;-1.510;2023-04-29T12:35:36;100907.47;;;20.93;40.26
21988;BME280;11158;53.404;-1.510;2023-04-29T12:41:12;100903.28;;;23.06;35.54
21988;BME280;11158;53.404;-1.510;2023-04-29T12:43:58;100906.06;;;22.89;35.04
21988;BME280;11158;53.404;-1.510;2023-04-29T12:46:43;100911.03;;;21.97;37.89
21988;BME280;11158;53.404;-1.510;2023-04-29T12:49:27;100911.00;;;22.31;37.53
21988;BME280;11158;53.404;-1.510;2023-04-29T12:52:11;100913.22;;;21.66;39.03
21988;BME280;11158;53.404;-1.510;2023-04-29T12:54:57;100918.72;;;22.56;36.56
21988;BME280;11158;53.404;-1.510;2023-04-29T12:57:41;100912.91;;;21.63;38.46
21988;BME280;11158;53.404;-1.510;2023-04-29T13:00:25;100915.69;;;21.51;38.62
21988;BME280;11158;53.404;-1.510;2023-04-29T13:03:10;100912.94;;;23.40;35.29
21988;BME280;11158;53.404;-1.510;2023-04-29T13:05:54;100912.94;;;24.00;34.47
21988;BME280;11158;53.404;-1.510;2023-04-29T13:08:39;100909.56;;;24.62;32.80
21988;BME280;11158;53.404;-1.510;2023-04-29T13:11:26;100903.72;;;23.19;34.92
21988;BME280;11158;53.404;-1.510;2023-04-29T13:14:10;100912.63;;;24.34;33.92
21988;BME280;11158;53.404;-1.510;2023-04-29T13:16:54;100903.41;;;25.03;33.19
21988;BME280;11158;53.404;-1.510;2023-04-29T13:19:39;100910.75;;;24.92;33.78
21988;BME280;11158;53.404;-1.510;2023-04-29T13:22:23;100910.47;;;24.36;34.61
21988;BME280;11158;53.404;-1.510;2023-04-29T13:25:07;100909.09;;;24.33;34.93
21988;BME280;11158;53.404;-1.510;2023-04-29T13:27:51;100906.78;;;24.15;34.84
21988;BME280;11158;53.404;-1.510;2023-04-29T13:30:35;100910.53;;;24.03;35.03
21988;BME280;11158;53.404;-1.510;2023-04-29T13:33:19;100909.66;;;24.40;33.47
21988;BME280;11158;53.404;-1.510;2023-04-29T13:36:03;100909.94;;;24.86;32.67
21988;BME280;11158;53.404;-1.510;2023-04-29T13:38:48;100909.44;;;25.05;32.60
21988;BME280;11158;53.404;-1.510;2023-04-29T13:41:32;100918.72;;;24.99;32.22
21988;BME280;11158;53.404;-1.510;2023-04-29T13:44:17;100910.81;;;25.07;32.47
21988;BME280;11158;53.404;-1.510;2023-04-29T13:47:02;100905.75;;;25.57;31.58
21988;BME280;11158;53.404;-1.510;2023-04-29T13:49:49;100913.69;;;23.90;33.79
21988;BME280;11158;53.404;-1.510;2023-04-29T13:52:33;100903.63;;;23.09;35.07
21988;BME280;11158;53.404;-1.510;2023-04-29T13:55:17;100915.34;;;22.15;37.18
21988;BME280;11158;53.404;-1.510;2023-04-29T13:58:02;100914.19;;;22.45;36.01
21988;BME280;11158;53.404;-1.510;2023-04-29T14:00:46;100916.69;;;23.61;33.83
21988;BME280;11158;53.404;-1.510;2023-04-29T14:03:30;100912.66;;;23.96;32.99
21988;BME280;11158;53.404;-1.510;2023-04-29T14:06:14;100914.31;;;23.70;33.02
21988;BME280;11158;53.404;-1.510;2023-04-29T14:08:59;100919.09;;;23.31;34.04
21988;BME280;11158;53.404;-1.510;2023-04-29T14:11:43;100925.75;;;23.67;33.09
21988;BME280;11158;53.404;-1.510;2023-04-29T14:14:27;100931.41;;;22.67;38.72
21988;BME280;11158;53.404;-1.510;2023-04-29T14:17:11;100939.84;;;20.95;45.93
21988;BME280;11158;53.404;-1.510;2023-04-29T14:19:56;100948.00;;;20.13;48.67
21988;BME280;11158;53.404;-1.510;2023-04-29T14:22:41;100959.50;;;19.05;52.44